createdAt,value
2023-04-30T00:02:11.043Z,6.20
2023-04-30T00:04:39.687Z,6.10
2023-04-30T00:07:08.612Z,5.90
2023-04-30T00:09:36.932Z,5.50
2023-04-30T00:12:07.333Z,5.20
2023-04-30T00:14:36.719Z,5.10
2023-04-30T00:17:05.120Z,5.10
2023-04-30T00:19:33.421Z,5.20
2023-04-30T00:22:02.650Z,5.40
2023-04-30T00:24:30.993Z,5.50
2023-04-30T00:26:59.273Z,5.50
2023-04-30T00:29:28.930Z,5.30
2023-04-30T00:31:57.344Z,5.20
2023-04-30T00:34:25.834Z,5.30
2023-04-30T00:36:54.135Z,5.50
2023-04-30T00:39:22.448Z,5.60
2023-04-30T00:41:50.840Z,5.60
2023-04-30T00:44:19.055Z,5.70
2023-04-30T00:46:48.679Z,5.60
2023-04-30T00:49:17.192Z,5.60
2023-04-30T00:51:46.585Z,5.50
2023-04-30T00:54:15.509Z,5.60
2023-04-30T00:56:46.693Z,5.40
2023-04-30T00:59:18.789Z,5.30
2023-04-30T01:01:48.956Z,5.20
2023-04-30T01:04:17.461Z,5.00
2023-04-30T01:06:46.695Z,5.10
2023-04-30T01:09:15.242Z,5.30
2023-04-30T01:11:57.742Z,5.30
2023-04-30T01:14:30.090Z,4.90
2023-04-30T01:17:07.190Z,5.00
2023-04-30T01:19:42.178Z,4.90
2023-04-30T01:22:17.362Z,4.40
2023-04-30T01:24:58.601Z,4.60
2023-04-30T01:27:41.689Z,4.80
2023-04-30T01:30:13.133Z,4.80
2023-04-30T01:32:41.387Z,4.40
2023-04-30T01:35:10.471Z,4.70
2023-04-30T01:37:50.241Z,4.40
2023-04-30T01:40:29.250Z,4.50
2023-04-30T01:43:10.511Z,4.60
2023-04-30T01:45:53.892Z,4.60
2023-04-30T01:48:34.354Z,4.80
2023-04-30T01:51:10.093Z,4.60
2023-04-30T01:53:43.076Z,4.60
2023-04-30T01:56:16.043Z,4.50
2023-04-30T01:58:44.536Z,4.70
2023-04-30T02:01:31.249Z,4.50
2023-04-30T02:04:00.362Z,4.50
2023-04-30T02:06:30.162Z,4.50
2023-04-30T02:09:03.452Z,4.60
2023-04-30T02:11:32.044Z,4.50
2023-04-30T02:14:00.220Z,4.50
2023-04-30T02:16:29.773Z,4.40
2023-04-30T02:18:57.933Z,4.40
2023-04-30T02:21:27.299Z,4.50
2023-04-30T02:23:55.696Z,4.50
2023-04-30T02:26:24.310Z,4.70
2023-04-30T02:28:52.422Z,4.70
2023-04-30T02:31:21.123Z,4.80
2023-04-30T02:33:50.690Z,4.90
2023-04-30T02:36:18.921Z,5.00
2023-04-30T02:38:47.248Z,4.80
2023-04-30T02:41:15.485Z,4.90
2023-04-30T02:43:44.206Z,4.80
2023-04-30T02:46:12.538Z,4.50
2023-04-30T02:48:40.750Z,4.30
2023-04-30T02:51:10.386Z,4.50
2023-04-30T02:53:41.694Z,4.50
2023-04-30T02:56:10.088Z,4.60
2023-04-30T02:58:38.406Z,4.70
2023-04-30T03:01:07.822Z,4.80
2023-04-30T03:03:36.807Z,4.70
2023-04-30T03:06:05.329Z,4.60
2023-04-30T03:08:34.938Z,4.50
2023-04-30T03:11:03.769Z,4.30
2023-04-30T03:13:32.001Z,4.30
2023-04-30T03:16:00.637Z,4.30
2023-04-30T03:18:29.416Z,4.10
2023-04-30T03:20:57.710Z,4.30
2023-04-30T03:23:25.979Z,4.10
2023-04-30T03:25:58.891Z,4.00
2023-04-30T03:28:27.992Z,4.10
2023-04-30T03:30:56.325Z,4.20
2023-04-30T03:33:24.653Z,4.20
2023-04-30T03:35:53.497Z,4.30
2023-04-30T03:38:21.718Z,4.10
2023-04-30T03:40:50.327Z,4.20
2023-04-30T03:43:19.998Z,4.10
2023-04-30T03:45:48.827Z,4.00
2023-04-30T03:48:17.478Z,3.60
2023-04-30T03:50:46.505Z,3.50
2023-04-30T03:53:14.737Z,3.70
2023-04-30T03:55:43.693Z,3.50
2023-04-30T03:58:12.172Z,3.40
2023-04-30T04:00:43.340Z,3.60
2023-04-30T04:03:11.601Z,3.50
2023-04-30T04:05:40.055Z,3.60
2023-04-30T04:08:08.614Z,3.80
2023-04-30T04:10:37.720Z,3.60
2023-04-30T04:13:07.193Z,3.40
2023-04-30T04:15:35.840Z,3.10
2023-04-30T04:18:07.172Z,3.40
2023-04-30T04:20:35.552Z,3.40
2023-04-30T04:23:03.813Z,3.40
2023-04-30T04:25:33.480Z,3.60
2023-04-30T04:28:05.142Z,4.00
2023-04-30T04:30:33.915Z,4.30
2023-04-30T04:33:02.075Z,4.20
2023-04-30T04:35:31.664Z,4.20
2023-04-30T04:38:00.394Z,4.30
2023-04-30T04:40:29.904Z,4.30
2023-04-30T04:43:00.118Z,4.30
2023-04-30T04:45:28.393Z,4.00
2023-04-30T04:47:56.632Z,3.70
2023-04-30T04:50:25.382Z,3.90
2023-04-30T04:52:55.105Z,3.90
2023-04-30T04:55:23.315Z,3.90
2023-04-30T04:57:51.887Z,4.20
2023-04-30T05:00:22.146Z,4.40
2023-04-30T05:02:50.479Z,4.60
2023-04-30T05:05:18.952Z,4.90
2023-04-30T05:07:47.187Z,5.10
2023-04-30T05:10:16.797Z,5.00
2023-04-30T05:12:47.938Z,5.00
2023-04-30T05:15:16.210Z,5.10
2023-04-30T05:17:44.419Z,5.20
2023-04-30T05:20:13.665Z,5.40
2023-04-30T05:22:42.442Z,5.70
2023-04-30T05:25:11.266Z,5.90
2023-04-30T05:27:41.112Z,5.70
2023-04-30T05:30:10.531Z,5.90
2023-04-30T05:32:38.857Z,6.20
2023-04-30T05:35:08.066Z,6.50
2023-04-30T05:37:36.895Z,6.70
2023-04-30T05:40:06.386Z,7.10
2023-04-30T05:42:34.670Z,7.20
2023-04-30T05:45:05.000Z,7.90
2023-04-30T05:47:33.240Z,7.90
2023-04-30T05:50:01.595Z,8.00
2023-04-30T05:52:29.825Z,8.20
2023-04-30T05:54:58.090Z,9.00
2023-04-30T05:57:26.498Z,9.00
2023-04-30T05:59:54.878Z,9.10
2023-04-30T06:02:24.991Z,9.70
2023-04-30T06:04:53.488Z,9.40
2023-04-30T06:07:21.724Z,9.40
2023-04-30T06:09:50.410Z,10.00
2023-04-30T06:12:18.717Z,10.60
2023-04-30T06:14:47.038Z,10.90
2023-04-30T06:17:16.055Z,10.70
2023-04-30T06:19:45.642Z,9.40
2023-04-30T06:22:14.467Z,9.50
2023-04-30T06:24:42.817Z,10.70
2023-04-30T06:27:11.159Z,11.80
2023-04-30T06:29:39.450Z,11.90
2023-04-30T06:32:08.619Z,12.10
2023-04-30T06:34:37.556Z,13.10
2023-04-30T06:37:07.309Z,14.40
2023-04-30T06:39:35.865Z,14.60
2023-04-30T06:42:04.390Z,15.10
2023-04-30T06:44:33.177Z,14.80
2023-04-30T06:47:01.393Z,15.10
2023-04-30T06:49:29.662Z,15.30
2023-04-30T06:51:58.694Z,15.50
2023-04-30T06:54:28.668Z,16.30
2023-04-30T06:56:56.911Z,15.90
2023-04-30T06:59:25.245Z,16.50
2023-04-30T07:01:53.610Z,17.30
2023-04-30T07:04:22.079Z,17.00
2023-04-30T07:06:50.989Z,17.50
2023-04-30T07:09:19.406Z,18.00
2023-04-30T07:11:49.052Z,17.00
2023-04-30T07:14:17.572Z,17.90
2023-04-30T07:16:46.674Z,17.10
2023-04-30T07:19:15.230Z,18.10
2023-04-30T07:21:44.135Z,18.10
2023-04-30T07:24:12.433Z,18.60
2023-04-30T07:26:44.463Z,19.00
2023-04-30T07:29:14.093Z,18.00
2023-04-30T07:31:42.393Z,16.40
2023-04-30T07:34:11.444Z,14.20
2023-04-30T07:36:39.930Z,15.90
2023-04-30T07:39:08.329Z,16.80
2023-04-30T07:41:36.631Z,18.00
2023-04-30T07:44:04.946Z,19.30
2023-04-30T07:46:35.135Z,19.60
2023-04-30T07:49:04.050Z,20.20
2023-04-30T07:51:32.948Z,21.60
2023-04-30T07:54:01.790Z,21.50
2023-04-30T07:56:33.221Z,21.80
2023-04-30T07:59:02.297Z,21.60
2023-04-30T08:01:30.594Z,20.90
2023-04-30T08:04:00.510Z,22.00
2023-04-30T08:06:28.989Z,21.50
2023-04-30T08:08:57.558Z,22.10
2023-04-30T08:11:26.155Z,21.60
2023-04-30T08:13:54.415Z,19.80
2023-04-30T08:16:22.895Z,19.60
2023-04-30T08:18:51.360Z,21.60
2023-04-30T08:21:21.174Z,22.30
2023-04-30T08:23:49.802Z,22.50
2023-04-30T08:26:18.124Z,22.80
2023-04-30T08:28:46.431Z,20.10
2023-04-30T08:31:15.054Z,19.30
2023-04-30T08:33:43.281Z,17.00
2023-04-30T08:36:11.789Z,17.60
2023-04-30T08:38:41.547Z,18.00
2023-04-30T08:41:13.270Z,20.20
2023-04-30T08:43:42.135Z,21.00
2023-04-30T08:46:13.167Z,22.20
2023-04-30T08:48:42.776Z,22.40
2023-04-30T08:51:11.109Z,22.30
2023-04-30T08:53:41.504Z,22.40
2023-04-30T08:56:11.801Z,22.10
2023-04-30T08:58:41.630Z,21.70
2023-04-30T09:01:11.325Z,22.20
2023-04-30T09:03:39.754Z,21.60
2023-04-30T09:06:08.377Z,21.90
2023-04-30T09:08:46.939Z,22.00
2023-04-30T09:11:26.686Z,22.80
2023-04-30T09:13:57.402Z,22.80
2023-04-30T09:16:26.905Z,21.60
2023-04-30T09:18:56.817Z,22.60
2023-04-30T09:21:33.322Z,22.30
2023-04-30T09:24:04.466Z,22.60
2023-04-30T09:26:35.006Z,22.60
2023-04-30T09:29:08.065Z,18.20
2023-04-30T09:31:37.405Z,18.70
2023-04-30T09:34:06.119Z,18.80
2023-04-30T09:36:35.270Z,19.90
2023-04-30T09:39:14.211Z,21.80
2023-04-30T09:41:44.662Z,20.70
2023-04-30T09:44:28.425Z,22.70
2023-04-30T09:46:58.894Z,23.80
2023-04-30T09:49:27.932Z,24.90
2023-04-30T09:51:57.695Z,23.30
2023-04-30T09:54:31.171Z,24.00
2023-04-30T09:57:01.671Z,23.30
2023-04-30T09:59:35.430Z,24.20
2023-04-30T10:02:05.674Z,23.20
2023-04-30T10:04:36.590Z,23.60
2023-04-30T10:07:09.714Z,24.30
2023-04-30T10:09:42.955Z,25.00
2023-04-30T10:12:16.183Z,23.90
2023-04-30T10:14:50.317Z,23.70
2023-04-30T10:17:19.696Z,23.30
2023-04-30T10:19:51.291Z,24.00
2023-04-30T10:22:20.755Z,24.10
2023-04-30T10:24:51.449Z,25.70
2023-04-30T10:27:21.372Z,23.90
2023-04-30T10:29:51.616Z,25.50
2023-04-30T10:32:21.599Z,25.10
2023-04-30T10:34:56.547Z,24.50
2023-04-30T10:37:32.539Z,24.50
2023-04-30T10:40:06.185Z,25.40
2023-04-30T10:42:36.432Z,25.80
2023-04-30T10:45:05.138Z,25.60
2023-04-30T10:47:33.496Z,26.20
2023-04-30T10:50:05.451Z,25.40
2023-04-30T10:52:33.659Z,25.30
2023-04-30T10:55:08.551Z,25.80
2023-04-30T10:57:43.695Z,25.50
2023-04-30T11:00:25.854Z,26.40
2023-04-30T11:02:59.365Z,26.00
2023-04-30T11:05:38.607Z,26.70
2023-04-30T11:08:07.349Z,25.10
2023-04-30T11:10:37.571Z,25.90
2023-04-30T11:13:07.787Z,26.90
2023-04-30T11:15:41.802Z,25.00
2023-04-30T11:18:10.809Z,26.00
2023-04-30T11:20:42.407Z,26.90
2023-04-30T11:23:13.193Z,27.50
2023-04-30T11:25:49.320Z,26.70
2023-04-30T11:28:19.629Z,26.50
2023-04-30T11:30:53.070Z,26.00
2023-04-30T11:33:22.157Z,24.60
2023-04-30T11:35:52.873Z,23.90
2023-04-30T11:38:23.042Z,24.10
2023-04-30T11:40:54.287Z,24.00
2023-04-30T11:43:23.937Z,24.60
2023-04-30T11:46:03.658Z,25.10
2023-04-30T11:48:33.447Z,25.30
2023-04-30T11:51:04.424Z,23.80
2023-04-30T11:53:33.401Z,25.00
2023-04-30T11:56:07.256Z,25.60
2023-04-30T11:58:37.993Z,25.80
2023-04-30T12:01:11.043Z,25.00
2023-04-30T12:03:45.722Z,26.00
2023-04-30T12:06:22.691Z,26.10
2023-04-30T12:08:51.194Z,25.30
2023-04-30T12:11:25.891Z,25.30
2023-04-30T12:13:55.947Z,25.70
2023-04-30T12:16:26.301Z,25.00
2023-04-30T12:18:55.564Z,25.40
2023-04-30T12:21:24.453Z,26.10
2023-04-30T12:23:53.454Z,25.80
2023-04-30T12:26:23.350Z,24.70
2023-04-30T12:28:52.148Z,24.50
2023-04-30T12:31:20.544Z,23.60
2023-04-30T12:33:58.089Z,23.30
2023-04-30T12:36:33.746Z,22.90
2023-04-30T12:39:09.576Z,22.40
2023-04-30T12:41:42.885Z,22.10
2023-04-30T12:44:21.775Z,22.10
2023-04-30T12:46:51.278Z,22.00
2023-04-30T12:49:27.097Z,22.20
2023-04-30T12:52:01.310Z,21.90
2023-04-30T12:54:31.065Z,20.30
2023-04-30T12:57:02.785Z,18.80
2023-04-30T12:59:31.973Z,18.60
2023-04-30T13:02:11.927Z,17.70
2023-04-30T13:04:40.993Z,17.80
2023-04-30T13:07:09.318Z,17.60
2023-04-30T13:09:39.299Z,17.60
2023-04-30T13:12:08.984Z,17.30
2023-04-30T13:14:37.287Z,17.30
2023-04-30T13:17:07.353Z,17.70
2023-04-30T13:19:35.720Z,17.60
2023-04-30T13:22:10.390Z,17.10
2023-04-30T13:24:38.618Z,16.40
2023-04-30T13:27:08.712Z,16.30
2023-04-30T13:29:36.985Z,16.00
2023-04-30T13:32:06.027Z,16.20
2023-04-30T13:34:34.507Z,16.60
2023-04-30T13:37:03.159Z,16.40
2023-04-30T13:39:47.817Z,16.40
2023-04-30T13:42:18.031Z,16.80
2023-04-30T13:44:48.650Z,16.80
2023-04-30T13:47:17.391Z,16.90
2023-04-30T13:49:46.109Z,16.90
2023-04-30T13:52:14.374Z,16.70
2023-04-30T13:54:43.196Z,16.80
2023-04-30T13:57:12.153Z,16.60
2023-04-30T13:59:41.851Z,16.50
2023-04-30T14:02:10.909Z,16.60
2023-04-30T14:04:39.189Z,16.70
2023-04-30T14:07:07.766Z,16.60
2023-04-30T14:09:36.217Z,16.00
2023-04-30T14:12:05.150Z,15.90
2023-04-30T14:14:33.554Z,16.20
2023-04-30T14:17:12.765Z,16.60
2023-04-30T14:19:41.700Z,16.90
2023-04-30T14:22:09.972Z,16.90
2023-04-30T14:24:39.061Z,17.00
2023-04-30T14:27:07.349Z,16.90
2023-04-30T14:29:38.695Z,16.60
2023-04-30T14:32:07.969Z,16.80
2023-04-30T14:34:38.299Z,16.90
2023-04-30T14:37:06.826Z,16.70
2023-04-30T14:39:35.415Z,16.80
2023-04-30T14:42:04.105Z,16.50
2023-04-30T14:44:32.334Z,16.10
2023-04-30T14:47:00.681Z,16.40
2023-04-30T14:49:29.444Z,16.60
2023-04-30T14:51:59.078Z,16.40
2023-04-30T14:54:27.613Z,16.50
2023-04-30T14:56:56.192Z,16.50
2023-04-30T14:59:24.406Z,16.00
2023-04-30T15:01:52.703Z,16.00
2023-04-30T15:04:21.283Z,16.20
2023-04-30T15:06:49.613Z,16.00
2023-04-30T15:09:19.307Z,15.80
2023-04-30T15:11:48.486Z,16.00
2023-04-30T15:14:17.630Z,16.00
2023-04-30T15:16:46.645Z,16.10
2023-04-30T15:19:15.171Z,16.00
2023-04-30T15:21:49.102Z,16.00
2023-04-30T15:24:19.018Z,16.00
2023-04-30T15:26:47.462Z,16.00
2023-04-30T15:29:15.721Z,16.00
2023-04-30T15:31:44.161Z,16.10
2023-04-30T15:34:12.361Z,15.90
2023-04-30T15:36:40.680Z,15.90
2023-04-30T15:39:08.879Z,15.80
2023-04-30T15:41:39.317Z,15.80
2023-04-30T15:44:07.659Z,15.80
2023-04-30T15:46:36.082Z,15.80
2023-04-30T15:49:04.383Z,15.60
2023-04-30T15:51:33.102Z,15.70
2023-04-30T15:54:01.671Z,15.60
2023-04-30T15:56:31.114Z,15.60
2023-04-30T15:59:01.542Z,15.50
2023-04-30T16:01:29.821Z,15.40
2023-04-30T16:03:58.271Z,15.40
2023-04-30T16:06:27.685Z,15.40
2023-04-30T16:08:56.266Z,15.40
2023-04-30T16:11:24.996Z,15.30
2023-04-30T16:13:53.458Z,15.30
2023-04-30T16:16:23.134Z,15.20
2023-04-30T16:18:51.671Z,15.20
2023-04-30T16:21:20.065Z,15.20
2023-04-30T16:23:48.456Z,15.20
2023-04-30T16:26:17.424Z,15.20
2023-04-30T16:28:46.908Z,15.00
2023-04-30T16:31:16.819Z,15.10
2023-04-30T16:33:46.946Z,15.10
2023-04-30T16:36:15.356Z,15.00
2023-04-30T16:38:44.413Z,14.80
2023-04-30T16:41:12.851Z,14.80
2023-04-30T16:43:41.106Z,14.90
2023-04-30T16:46:09.472Z,14.70
2023-04-30T16:48:38.122Z,14.80
2023-04-30T16:51:09.534Z,14.80
2023-04-30T16:53:37.780Z,14.90
2023-04-30T16:56:06.903Z,15.00
2023-04-30T16:58:36.410Z,14.70
2023-04-30T17:01:04.676Z,14.70
2023-04-30T17:03:34.783Z,14.70
2023-04-30T17:06:04.192Z,14.70
2023-04-30T17:08:33.964Z,14.60
2023-04-30T17:11:02.680Z,14.60
2023-04-30T17:13:32.261Z,14.70
2023-04-30T17:16:01.937Z,14.60
2023-04-30T17:18:31.690Z,14.50
2023-04-30T17:21:00.534Z,14.60
2023-04-30T17:23:28.753Z,14.50
2023-04-30T17:25:58.354Z,14.40
2023-04-30T17:28:26.752Z,14.50
2023-04-30T17:30:56.556Z,14.40
2023-04-30T17:33:26.579Z,14.20
2023-04-30T17:35:55.122Z,14.10
2023-04-30T17:38:23.454Z,13.90
2023-04-30T17:40:53.216Z,13.90
2023-04-30T17:43:22.854Z,13.90
2023-04-30T17:45:53.298Z,13.70
2023-04-30T17:48:21.769Z,13.70
2023-04-30T17:50:50.428Z,13.60
2023-04-30T17:53:18.682Z,13.60
2023-04-30T17:55:46.967Z,13.60
2023-04-30T17:58:15.171Z,13.60
2023-04-30T18:00:44.975Z,13.50
2023-04-30T18:03:13.697Z,13.50
2023-04-30T18:05:42.362Z,13.60
2023-04-30T18:08:11.109Z,13.60
2023-04-30T18:10:39.486Z,13.60
2023-04-30T18:13:07.962Z,13.30
2023-04-30T18:15:37.597Z,13.40
2023-04-30T18:18:07.852Z,13.30
2023-04-30T18:20:36.382Z,13.20
2023-04-30T18:23:05.250Z,13.30
2023-04-30T18:25:36.975Z,13.30
2023-04-30T18:28:05.375Z,13.40
2023-04-30T18:30:34.791Z,13.20
2023-04-30T18:33:03.231Z,13.30
2023-04-30T18:35:33.408Z,13.10
2023-04-30T18:38:02.511Z,12.80
2023-04-30T18:40:31.745Z,12.70
2023-04-30T18:43:00.511Z,12.80
2023-04-30T18:45:28.715Z,12.70
2023-04-30T18:47:57.311Z,12.70
2023-04-30T18:50:27.392Z,12.70
2023-04-30T18:52:56.953Z,12.70
2023-04-30T18:55:25.380Z,12.50
2023-04-30T18:57:56.330Z,12.40
2023-04-30T19:00:24.942Z,12.30
2023-04-30T19:02:53.570Z,12.20
2023-04-30T19:05:21.969Z,12.20
2023-04-30T19:07:50.503Z,11.90
2023-04-30T19:10:20.297Z,11.70
2023-04-30T19:12:49.395Z,11.70
2023-04-30T19:15:17.871Z,11.50
2023-04-30T19:17:46.334Z,11.50
2023-04-30T19:20:14.805Z,11.40
2023-04-30T19:22:43.620Z,11.30
2023-04-30T19:25:12.368Z,11.50
2023-04-30T19:27:43.962Z,11.60
2023-04-30T19:30:14.453Z,11.50
2023-04-30T19:32:43.033Z,11.20
2023-04-30T19:35:14.431Z,11.40
2023-04-30T19:37:43.024Z,11.60
2023-04-30T19:40:12.524Z,11.60
2023-04-30T19:42:42.308Z,11.50
2023-04-30T19:45:11.989Z,11.10
2023-04-30T19:47:40.357Z,11.00
2023-04-30T19:50:10.085Z,10.90
2023-04-30T19:52:38.327Z,11.10
2023-04-30T19:55:07.088Z,11.20
2023-04-30T19:57:36.398Z,11.30
2023-04-30T20:00:07.234Z,11.30
2023-04-30T20:02:35.561Z,11.20
2023-04-30T20:05:06.964Z,11.20
2023-04-30T20:07:35.840Z,11.00
2023-04-30T20:10:04.526Z,11.00
2023-04-30T20:12:33.194Z,11.00
2023-04-30T20:15:01.405Z,11.00
2023-04-30T20:17:33.925Z,11.00
2023-04-30T20:20:02.728Z,10.80
2023-04-30T20:22:31.209Z,10.80
2023-04-30T20:24:59.696Z,10.80
2023-04-30T20:27:27.890Z,10.60
2023-04-30T20:29:56.284Z,10.50
2023-04-30T20:32:24.816Z,10.50
2023-04-30T20:34:54.548Z,10.50
2023-04-30T20:37:23.548Z,10.30
2023-04-30T20:39:51.905Z,10.30
2023-04-30T20:42:20.324Z,10.30
2023-04-30T20:44:48.678Z,10.10
2023-04-30T20:47:17.111Z,9.80
2023-04-30T20:49:45.304Z,9.70
2023-04-30T20:52:15.355Z,9.60
2023-04-30T20:54:44.033Z,9.60
2023-04-30T20:57:12.574Z,9.60
2023-04-30T20:59:41.436Z,9.70
2023-04-30T21:02:10.355Z,9.70
2023-04-30T21:04:38.654Z,9.70
2023-04-30T21:07:06.918Z,9.70
2023-04-30T21:09:38.253Z,9.80
2023-04-30T21:12:07.003Z,9.70
2023-04-30T21:14:35.591Z,9.70
2023-04-30T21:17:04.537Z,9.70
2023-04-30T21:19:33.789Z,9.60
2023-04-30T21:22:02.044Z,9.50
2023-04-30T21:24:32.121Z,9.50
2023-04-30T21:27:02.267Z,9.50
2023-04-30T21:29:30.585Z,9.50
2023-04-30T21:31:59.045Z,9.50
2023-04-30T21:34:27.346Z,9.50
2023-04-30T21:36:55.699Z,9.30
2023-04-30T21:39:23.945Z,9.20
2023-04-30T21:41:52.326Z,9.20
2023-04-30T21:44:21.988Z,9.20
2023-04-30T21:46:50.827Z,9.20
2023-04-30T21:49:19.318Z,9.20
2023-04-30T21:51:51.429Z,9.20
2023-04-30T21:54:22.716Z,9.20
2023-04-30T21:56:51.045Z,9.10
2023-04-30T21:59:19.394Z,9.10
2023-04-30T22:01:49.511Z,9.20
2023-04-30T22:04:21.510Z,9.20
2023-04-30T22:06:50.208Z,9.20
2023-04-30T22:09:18.504Z,9.20
2023-04-30T22:11:47.272Z,9.30
2023-04-30T22:14:15.712Z,9.30
2023-04-30T22:16:44.434Z,9.30
2023-04-30T22:19:16.893Z,9.30
2023-04-30T22:21:45.497Z,9.30
2023-04-30T22:24:15.391Z,9.30
2023-04-30T22:26:44.357Z,9.30
2023-04-30T22:29:12.572Z,9.20
2023-04-30T22:31:40.828Z,9.20
2023-04-30T22:34:09.641Z,9.20
2023-04-30T22:36:39.273Z,9.10
2023-04-30T22:39:08.026Z,9.10
2023-04-30T22:41:36.551Z,8.80
2023-04-30T22:44:05.881Z,8.50
2023-04-30T22:46:36.881Z,8.30
2023-04-30T22:49:05.126Z,8.20
2023-04-30T22:51:36.430Z,8.10
2023-04-30T22:54:06.290Z,8.10
2023-04-30T22:56:34.531Z,8.20
2023-04-30T22:59:03.378Z,8.10
2023-04-30T23:01:31.617Z,8.00
2023-04-30T23:04:00.058Z,8.20
2023-04-30T23:06:31.939Z,8.20
2023-04-30T23:09:00.236Z,8.20
2023-04-30T23:11:29.745Z,8.00
2023-04-30T23:13:57.910Z,8.10
2023-04-30T23:16:26.137Z,8.20
2023-04-30T23:18:54.488Z,8.30
2023-04-30T23:21:25.675Z,8.30
2023-04-30T23:23:54.028Z,8.30
2023-04-30T23:26:23.244Z,8.30
2023-04-30T23:28:53.535Z,8.30
2023-04-30T23:31:21.774Z,8.40
2023-04-30T23:33:49.949Z,8.20
2023-04-30T23:36:18.396Z,8.20
2023-04-30T23:38:47.567Z,8.10
2023-04-30T23:41:16.356Z,8.00
2023-04-30T23:43:44.739Z,7.80
2023-04-30T23:46:15.948Z,7.80
2023-04-30T23:48:44.201Z,7.70
2023-04-30T23:51:12.735Z,7.60
2023-04-30T23:53:40.972Z,7.70
2023-04-30T23:56:09.496Z,7.60
2023-04-30T23:58:38.250Z,7.60
